Time;durP1;ratioP1;P1;durP2;ratioP2;P2;SDS_P1;SDS_P2;PMS_P1;PMS_P2;Temp;Humidity;BMP_temperature;BMP_pressure;BME280_temperature;BME280_humidity;BME280_pressure;Samples;Min_cycle;Max_cycle;Signal;HPM_P1;HPM_P2
2024/03/26 00:01:06;;;;;;;;;;;;;;;;;;4983475;28;19972;-49
2024/03/26 00:03:32;;;;;;;;;;;;;;;;;;4978069;28;19920;-49
2024/03/26 00:05:58;;;;;;;;;;;;;;;;;;5001901;28;19914;-51
2024/03/26 00:08:24;;;;;;;;;;;;;;;;;;5000971;28;19920;-49
2024/03/26 00:10:51;;;;;;;;;;;;;;;;;;5012419;28;19913;-48
2024/03/26 00:13:17;;;;;;;;;;;;;;;;;;5012842;28;19945;-52
2024/03/26 00:15:43;;;;;;;;;;;;;;;;;;4993896;28;19914;-49
2024/03/26 00:18:09;;;;;;;;;;;;;;;;;;5012419;28;19917;-49
2024/03/26 00:20:35;;;;;;;;;;;;;;;;;;5012284;28;19917;-48
2024/03/26 00:23:01;;;;;;;;;;;;;;;;;;5010704;28;20440;-51
2024/03/26 00:25:28;;;;;;;;;;;;;;;;;;5010675;28;19924;-49
2024/03/26 00:27:54;;;;;;;;;;;;;;;;;;5000130;28;19924;-48
2024/03/26 00:30:20;;;;;;;;;;;;;;;;;;5009951;28;19920;-49
2024/03/26 00:32:46;;;;;;;;;;;;;;;;;;4992976;28;19920;-50
2024/03/26 00:35:12;;;;;;;;;;;;;;;;;;4975559;28;20008;-48
2024/03/26 00:37:38;;;;;;;;;;;;;;;;;;4986654;28;19944;-48
2024/03/26 00:40:05;;;;;;;;;;;;;;;;;;4992677;28;19922;-51
2024/03/26 00:42:31;;;;;;;;;;;;;;;;;;4992896;28;19978;-47
2024/03/26 00:44:57;;;;;;;;;;;;;;;;;;4993051;28;19918;-47
2024/03/26 00:47:23;;;;;;;;;;;;;;;;;;5011327;28;19960;-48
2024/03/26 00:49:49;;;;;;;;;;;;;;;;;;5012068;28;19976;-48
2024/03/26 00:52:15;;;;;;;;;;;;;;;;;;5002504;28;19918;-48
2024/03/26 00:54:41;;;;;;;;;;;;;;;;;;4993788;28;20385;-48
2024/03/26 00:57:07;;;;;;;;;;;;;;;;;;4992631;28;19917;-47
2024/03/26 00:59:33;;;;;;;;;;;;;;;;;;4993514;28;19989;-48
2024/03/26 01:02:00;;;;;;;;;;;;;;;;;;5007156;28;20063;-48
2024/03/26 01:04:26;;;;;;;;;;;;;;;;;;5011646;28;19914;-49
2024/03/26 01:06:52;;;;;;;;;;;;;;;;;;5012306;28;19956;-50
2024/03/26 01:09:18;;;;;;;;;;;;;;;;;;5010012;28;20008;-49
2024/03/26 01:11:44;;;;;;;;;;;;;;;;;;5004630;28;19917;-47
2024/03/26 01:14:10;;;;;;;;;;;;;;;;;;5011803;28;19920;-48
2024/03/26 01:16:36;;;;;;;;;;;;;;;;;;5003576;28;19942;-49
2024/03/26 01:19:02;;;;;;;;;;;;;;;;;;4996180;28;19992;-48
2024/03/26 01:21:28;;;;;;;;;;;;;;;;;;4997297;28;19932;-48
2024/03/26 01:23:54;;;;;;;;;;;;;;;;;;4997390;28;19914;-48
2024/03/26 01:26:21;;;;;;;;;;;;;;;;;;4991441;28;19996;-49
2024/03/26 01:28:47;;;;;;;;;;;;;;;;;;5012565;28;20301;-48
2024/03/26 01:31:13;;;;;;;;;;;;;;;;;;5006332;28;19913;-48
2024/03/26 01:33:39;;;;;;;;;;;;;;;;;;5013721;28;19913;-47
2024/03/26 01:36:05;;;;;;;;;;;;;;;;;;5015481;28;20386;-48
2024/03/26 01:38:31;;;;;;;;;;;;;;;;;;5015347;28;19971;-48
2024/03/26 01:40:57;;;;;;;;;;;;;;;;;;4995996;28;19953;-48
2024/03/26 01:43:23;;;;;;;;;;;;;;;;;;5000101;28;19968;-48
2024/03/26 01:45:49;;;;;;;;;;;;;;;;;;5001814;28;19913;-48
2024/03/26 01:48:15;;;;;;;;;;;;;;;;;;5015281;28;19914;-48
2024/03/26 01:50:41;;;;;;;;;;;;;;;;;;5015017;28;20012;-48
2024/03/26 01:53:07;;;;;;;;;;;;;;;;;;5002460;28;19971;-48
2024/03/26 01:55:34;;;;;;;;;;;;;;;;;;5007872;28;19913;-48
2024/03/26 01:58:00;;;;;;;;;;;;;;;;;;4962059;28;20008;-49
2024/03/26 02:00:26;;;;;;;;;;;;;;;;;;5002078;28;19964;-51
2024/03/26 02:02:54;;;;;;;;;;;;;;;;;;5015097;28;19936;-48
2024/03/26 02:05:20;;;;;;;;;;;;;;;;;;4997581;28;19917;-48
2024/03/26 02:07:47;;;;;;;;;;;;;;;;;;5014893;28;19921;-48
2024/03/26 02:10:13;;;;;;;;;;;;;;;;;;4997572;28;20020;-49
2024/03/26 02:12:39;;;;;;;;;;;;;;;;;;5007952;28;20001;-50
2024/03/26 02:15:05;;;;;;;;;;;;;;;;;;4978109;28;19913;-48
2024/03/26 02:17:31;;;;;;;;;;;;;;;;;;4995189;28;19914;-48
2024/03/26 02:19:57;;;;;;;;;;;;;;;;;;4995139;28;19921;-48
2024/03/26 02:22:23;;;;;;;;;;;;;;;;;;4977738;28;19914;-48
2024/03/26 02:24:49;;;;;;;;;;;;;;;;;;4977819;28;20000;-48
2024/03/26 02:27:15;;;;;;;;;;;;;;;;;;4995109;28;19941;-48
2024/03/26 02:29:41;;;;;;;;;;;;;;;;;;4995154;28;20012;-48
2024/03/26 02:32:07;;;;;;;;;;;;;;;;;;4994974;28;19996;-48
2024/03/26 02:34:33;;;;;;;;;;;;;;;;;;4994987;28;19910;-48
2024/03/26 02:36:59;;;;;;;;;;;;;;;;;;4977657;28;19914;-48
2024/03/26 02:39:25;;;;;;;;;;;;;;;;;;4994630;28;19964;-49
2024/03/26 02:41:52;;;;;;;;;;;;;;;;;;4977449;28;20333;-49
2024/03/26 02:44:18;;;;;;;;;;;;;;;;;;4977550;28;19914;-48
2024/03/26 02:46:44;;;;;;;;;;;;;;;;;;4994718;28;20004;-49
2024/03/26 02:49:10;;;;;;;;;;;;;;;;;;5001399;28;19910;-48
2024/03/26 02:51:36;;;;;;;;;;;;;;;;;;4996709;28;19920;-48
2024/03/26 02:54:02;;;;;;;;;;;;;;;;;;4997014;28;19918;-48
2024/03/26 02:56:31;;;;;;;;;;;;;;;;;;5014485;28;19917;-48
2024/03/26 02:58:58;;;;;;;;;;;;;;;;;;5014069;28;19925;-47
2024/03/26 03:01:24;;;;;;;;;;;;;;;;;;5014026;28;19921;-47
2024/03/26 03:03:50;;;;;;;;;;;;;;;;;;5014188;28;19921;-47
2024/03/26 03:06:16;;;;;;;;;;;;;;;;;;5014164;28;20448;-47
2024/03/26 03:08:42;;;;;;;;;;;;;;;;;;5013974;28;19914;-47
2024/03/26 03:11:08;;;;;;;;;;;;;;;;;;5013948;28;19917;-48
2024/03/26 03:13:34;;;;;;;;;;;;;;;;;;5013933;28;19940;-48
2024/03/26 03:16:00;;;;;;;;;;;;;;;;;;4996037;28;19917;-50
2024/03/26 03:18:26;;;;;;;;;;;;;;;;;;4994925;28;19960;-48
2024/03/26 03:20:52;;;;;;;;;;;;;;;;;;5013093;28;19925;-51
2024/03/26 03:23:18;;;;;;;;;;;;;;;;;;5013738;28;19920;-48
2024/03/26 03:25:44;;;;;;;;;;;;;;;;;;5013755;28;20298;-49
2024/03/26 03:28:10;;;;;;;;;;;;;;;;;;5013443;28;19948;-51
2024/03/26 03:30:37;;;;;;;;;;;;;;;;;;5013462;28;19972;-47
2024/03/26 03:33:03;;;;;;;;;;;;;;;;;;5013169;28;19920;-48
2024/03/26 03:35:29;;;;;;;;;;;;;;;;;;5012893;28;19976;-48
2024/03/26 03:37:55;;;;;;;;;;;;;;;;;;5012982;28;19913;-48
2024/03/26 03:40:21;;;;;;;;;;;;;;;;;;5013283;28;19921;-48
2024/03/26 03:42:47;;;;;;;;;;;;;;;;;;5013367;28;20098;-49
2024/03/26 03:45:13;;;;;;;;;;;;;;;;;;5013398;28;20002;-48
2024/03/26 03:47:39;;;;;;;;;;;;;;;;;;5013033;28;19913;-47
2024/03/26 03:50:05;;;;;;;;;;;;;;;;;;4998760;28;20295;-49
2024/03/26 03:52:31;;;;;;;;;;;;;;;;;;4977198;28;20028;-50
2024/03/26 03:54:58;;;;;;;;;;;;;;;;;;4997354;28;20333;-49
2024/03/26 03:57:24;;;;;;;;;;;;;;;;;;4995227;28;19920;-48
2024/03/26 03:59:50;;;;;;;;;;;;;;;;;;5011184;28;19917;-47
2024/03/26 04:02:16;;;;;;;;;;;;;;;;;;5009724;28;19959;-48
2024/03/26 04:04:42;;;;;;;;;;;;;;;;;;5012500;28;19913;-47
2024/03/26 04:07:08;;;;;;;;;;;;;;;;;;5012598;28;19924;-47
2024/03/26 04:09:34;;;;;;;;;;;;;;;;;;5010086;28;19992;-48
2024/03/26 04:12:00;;;;;;;;;;;;;;;;;;5001253;28;19960;-48
2024/03/26 04:14:26;;;;;;;;;;;;;;;;;;5009536;28;19922;-47
2024/03/26 04:16:52;;;;;;;;;;;;;;;;;;5001691;28;20393;-48
2024/03/26 04:19:18;;;;;;;;;;;;;;;;;;5012529;28;20003;-48
2024/03/26 04:21:44;;;;;;;;;;;;;;;;;;4999267;28;20403;-49
2024/03/26 04:24:11;;;;;;;;;;;;;;;;;;4993120;28;19914;-48
2024/03/26 04:26:37;;;;;;;;;;;;;;;;;;4992991;28;20378;-49
2024/03/26 04:29:03;;;;;;;;;;;;;;;;;;4978071;28;19921;-47
2024/03/26 04:31:29;;;;;;;;;;;;;;;;;;5000940;28;19914;-51
2024/03/26 04:33:55;;;;;;;;;;;;;;;;;;4992935;28;19914;-49
2024/03/26 04:36:21;;;;;;;;;;;;;;;;;;5004396;28;19975;-49
2024/03/26 04:38:47;;;;;;;;;;;;;;;;;;5011641;28;19922;-49
2024/03/26 04:41:13;;;;;;;;;;;;;;;;;;5012261;28;19922;-48
2024/03/26 04:43:39;;;;;;;;;;;;;;;;;;5009907;28;19968;-47
2024/03/26 04:46:05;;;;;;;;;;;;;;;;;;4983339;28;19913;-49
2024/03/26 04:48:31;;;;;;;;;;;;;;;;;;4994582;28;19918;-47
2024/03/26 04:50:58;;;;;;;;;;;;;;;;;;4992697;28;19918;-45
2024/03/26 04:53:24;;;;;;;;;;;;;;;;;;4976446;28;19937;-45
2024/03/26 04:55:50;;;;;;;;;;;;;;;;;;4992538;28;19914;-49
2024/03/26 04:58:16;;;;;;;;;;;;;;;;;;4974766;28;19967;-50
2024/03/26 05:00:42;;;;;;;;;;;;;;;;;;5061809;23;19928;-49
2024/03/26 05:03:08;;;;;;;;;;;;;;;;;;5049057;28;19917;-48
2024/03/26 05:05:34;;;;;;;;;;;;;;;;;;5031414;28;19948;-49
2024/03/26 05:08:00;;;;;;;;;;;;;;;;;;5049814;28;20323;-49
2024/03/26 05:10:26;;;;;;;;;;;;;;;;;;5049589;28;19916;-48
2024/03/26 05:12:52;;;;;;;;;;;;;;;;;;5050141;28;19960;-51
2024/03/26 05:15:18;;;;;;;;;;;;;;;;;;5050053;28;20007;-48
2024/03/26 05:17:44;;;;;;;;;;;;;;;;;;5050857;28;20068;-49
2024/03/26 05:20:10;;;;;;;;;;;;;;;;;;5034052;28;19928;-53
2024/03/26 05:22:36;;;;;;;;;;;;;;;;;;5051889;28;20387;-51
2024/03/26 05:25:03;;;;;;;;;;;;;;;;;;5051757;28;19913;-48
2024/03/26 05:27:29;;;;;;;;;;;;;;;;;;5051522;28;19913;-50
2024/03/26 05:29:55;;;;;;;;;;;;;;;;;;5017508;28;20446;-52
2024/03/26 05:32:21;;;;;;;;;;;;;;;;;;5051842;28;19912;-52
2024/03/26 05:34:47;;;;;;;;;;;;;;;;;;5033907;28;19963;-48
2024/03/26 05:37:13;;;;;;;;;;;;;;;;;;5051543;28;20007;-50
2024/03/26 05:39:39;;;;;;;;;;;;;;;;;;5051473;28;19921;-51
2024/03/26 05:42:06;;;;;;;;;;;;;;;;;;5051633;28;19917;-50
2024/03/26 05:44:32;;;;;;;;;;;;;;;;;;5051611;28;19917;-47
2024/03/26 05:46:58;;;;;;;;;;;;;;;;;;5051918;28;20301;-49
2024/03/26 05:49:24;;;;;;;;;;;;;;;;;;5051402;28;20007;-50
2024/03/26 05:51:51;;;;;;;;;;;;;;;;;;5051605;28;19913;-50
2024/03/26 05:54:17;;;;;;;;;;;;;;;;;;5051460;28;19935;-50
2024/03/26 05:56:43;;;;;;;;;;;;;;;;;;5051461;28;19959;-49
2024/03/26 05:59:09;;;;;;;;;;;;;;;;;;5054085;28;19919;-48
2024/03/26 06:01:35;;;;;;;;;;;;;;;;;;5054928;28;20288;-52
2024/03/26 06:04:01;;;;;;;;;;;;;;;;;;5055112;28;19921;-48
2024/03/26 06:06:27;;;;;;;;;;;;;;;;;;5055073;28;19966;-52
2024/03/26 06:08:53;;;;;;;;;;;;;;;;;;5054725;28;19919;-51
2024/03/26 06:11:20;;;;;;;;;;;;;;;;;;5054749;28;19940;-50
2024/03/26 06:13:46;;;;;;;;;;;;;;;;;;5054890;28;20381;-50
2024/03/26 06:16:12;;;;;;;;;;;;;;;;;;5037159;28;19916;-50
2024/03/26 06:18:38;;;;;;;;;;;;;;;;;;5036751;28;19923;-51
2024/03/26 06:21:07;;;;;;;;;;;;;;;;;;5054554;28;19917;-52
2024/03/26 06:23:33;;;;;;;;;;;;;;;;;;5036731;28;19913;-48
2024/03/26 06:25:59;;;;;;;;;;;;;;;;;;5054589;28;19967;-52
2024/03/26 06:28:25;;;;;;;;;;;;;;;;;;5054521;28;19913;-52
2024/03/26 06:30:51;;;;;;;;;;;;;;;;;;5054541;28;20289;-49
2024/03/26 06:33:17;;;;;;;;;;;;;;;;;;5054537;28;19956;-50
2024/03/26 06:35:43;;;;;;;;;;;;;;;;;;5036740;28;20369;-53
2024/03/26 06:38:09;;;;;;;;;;;;;;;;;;5054572;28;19912;-51
2024/03/26 06:40:35;;;;;;;;;;;;;;;;;;5054401;28;19917;-51
2024/03/26 06:43:01;;;;;;;;;;;;;;;;;;5054361;28;19958;-50
2024/03/26 06:45:27;;;;;;;;;;;;;;;;;;5054686;28;19920;-48
2024/03/26 06:47:54;;;;;;;;;;;;;;;;;;5054114;28;20009;-47
2024/03/26 06:50:20;;;;;;;;;;;;;;;;;;5054213;28;19912;-48
2024/03/26 06:52:46;;;;;;;;;;;;;;;;;;5054105;28;19916;-48
2024/03/26 06:55:12;;;;;;;;;;;;;;;;;;5036253;28;19916;-50
2024/03/26 06:57:38;;;;;;;;;;;;;;;;;;5019988;28;20274;-48
2024/03/26 07:00:06;;;;;;;;;;;;;;;;;;5053900;28;19917;-48
2024/03/26 07:02:32;;;;;;;;;;;;;;;;;;5053970;28;19913;-48
2024/03/26 07:04:58;;;;;;;;;;;;;;;;;;5036073;28;19948;-48
2024/03/26 07:07:24;;;;;;;;;;;;;;;;;;5053825;28;19913;-49
2024/03/26 07:09:50;;;;;;;;;;;;;;;;;;5034470;28;19917;-49
2024/03/26 07:12:17;;;;;;;;;;;;;;;;;;5052717;28;19924;-49
2024/03/26 07:14:43;;;;;;;;;;;;;;;;;;5053273;28;19916;-51
2024/03/26 07:17:09;;;;;;;;;;;;;;;;;;5053458;28;19966;-50
2024/03/26 07:19:35;;;;;;;;;;;;;;;;;;5053007;28;19924;-49
2024/03/26 07:22:02;;;;;;;;;;;;;;;;;;5053574;28;19956;-48
2024/03/26 07:24:28;;;;;;;;;;;;;;;;;;5053280;28;19920;-50
2024/03/26 07:26:54;;;;;;;;;;;;;;;;;;5053096;28;20041;-48
2024/03/26 07:29:20;;;;;;;;;;;;;;;;;;5053309;28;20407;-51
2024/03/26 07:31:46;;;;;;;;;;;;;;;;;;5052919;28;20015;-50
2024/03/26 07:34:13;;;;;;;;;;;;;;;;;;5053326;28;19917;-48
2024/03/26 07:36:39;;;;;;;;;;;;;;;;;;5042368;28;19913;-51
2024/03/26 07:39:05;;;;;;;;;;;;;;;;;;5053178;28;19920;-49
2024/03/26 07:41:31;;;;;;;;;;;;;;;;;;5052500;28;19917;-49
2024/03/26 07:43:58;;;;;;;;;;;;;;;;;;5053258;28;19948;-48
2024/03/26 07:46:24;;;;;;;;;;;;;;;;;;5040436;28;19920;-47
2024/03/26 07:48:50;;;;;;;;;;;;;;;;;;5052761;28;19936;-48
2024/03/26 07:51:16;;;;;;;;;;;;;;;;;;5052393;28;20392;-48
2024/03/26 07:53:43;;;;;;;;;;;;;;;;;;5052862;28;19919;-48
2024/03/26 07:56:09;;;;;;;;;;;;;;;;;;5052276;28;20331;-49
2024/03/26 07:58:35;;;;;;;;;;;;;;;;;;5052674;28;19913;-48
2024/03/26 08:01:01;;;;;;;;;;;;;;;;;;5047044;28;19917;-47
2024/03/26 08:03:27;;;;;;;;;;;;;;;;;;5052764;28;19957;-48
2024/03/26 08:05:53;;;;;;;;;;;;;;;;;;5052388;28;19913;-48
2024/03/26 08:08:19;;;;;;;;;;;;;;;;;;5052521;28;19913;-50
2024/03/26 08:10:45;;;;;;;;;;;;;;;;;;5051945;28;19924;-49
2024/03/26 08:13:11;;;;;;;;;;;;;;;;;;5052661;28;19913;-48
2024/03/26 08:15:37;;;;;;;;;;;;;;;;;;5052169;28;19920;-47
2024/03/26 08:18:03;;;;;;;;;;;;;;;;;;5052387;28;19955;-49
2024/03/26 08:20:31;;;;;;;;;;;;;;;;;;5051605;28;19924;-49
2024/03/26 08:22:57;;;;;;;;;;;;;;;;;;5042530;28;19912;-46
2024/03/26 08:25:24;;;;;;;;;;;;;;;;;;5051925;28;20443;-48
2024/03/26 08:27:50;;;;;;;;;;;;;;;;;;5052269;28;19913;-47
2024/03/26 08:30:16;;;;;;;;;;;;;;;;;;5051900;28;19923;-47
2024/03/26 08:32:44;;;;;;;;;;;;;;;;;;5052241;28;19999;-49
2024/03/26 08:35:10;;;;;;;;;;;;;;;;;;5051872;28;19966;-47
2024/03/26 08:37:37;;;;;;;;;;;;;;;;;;5052004;28;19944;-48
2024/03/26 08:40:03;;;;;;;;;;;;;;;;;;5051735;28;19982;-48
2024/03/26 08:42:29;;;;;;;;;;;;;;;;;;5052023;28;19912;-52
2024/03/26 08:44:55;;;;;;;;;;;;;;;;;;5051695;28;20384;-53
2024/03/26 08:47:22;;;;;;;;;;;;;;;;;;5051837;28;20015;-50
2024/03/26 08:49:48;;;;;;;;;;;;;;;;;;5051755;28;19917;-51
2024/03/26 08:52:14;;;;;;;;;;;;;;;;;;5051978;28;19936;-49
2024/03/26 08:54:41;;;;;;;;;;;;;;;;;;5051677;28;19913;-51
2024/03/26 08:57:07;;;;;;;;;;;;;;;;;;5051939;28;20515;-50
2024/03/26 08:59:33;;;;;;;;;;;;;;;;;;5051687;28;19913;-48
2024/03/26 09:01:59;;;;;;;;;;;;;;;;;;5050690;28;19929;-46
2024/03/26 09:04:25;;;;;;;;;;;;;;;;;;5052078;28;20389;-52
2024/03/26 09:06:51;;;;;;;;;;;;;;;;;;5052029;28;19913;-50
2024/03/26 09:09:19;;;;;;;;;;;;;;;;;;5051887;28;19913;-47
2024/03/26 09:11:45;;;;;;;;;;;;;;;;;;5050766;28;20015;-47
2024/03/26 09:14:11;;;;;;;;;;;;;;;;;;5052063;28;19916;-48
2024/03/26 09:16:37;;;;;;;;;;;;;;;;;;5050664;28;20373;-48
2024/03/26 09:19:03;;;;;;;;;;;;;;;;;;5050453;28;19912;-48
2024/03/26 09:21:29;;;;;;;;;;;;;;;;;;5051720;28;19924;-47
2024/03/26 09:23:55;;;;;;;;;;;;;;;;;;5051886;28;20011;-48
2024/03/26 09:26:21;;;;;;;;;;;;;;;;;;5051780;28;19967;-48
2024/03/26 09:28:47;;;;;;;;;;;;;;;;;;5051599;28;20292;-50
2024/03/26 09:31:13;;;;;;;;;;;;;;;;;;5051793;28;20011;-48
2024/03/26 09:33:39;;;;;;;;;;;;;;;;;;5053980;28;19916;-48
2024/03/26 09:36:06;;;;;;;;;;;;;;;;;;5054535;28;19917;-49
2024/03/26 09:38:32;;;;;;;;;;;;;;;;;;5055494;28;20266;-47
2024/03/26 09:40:58;;;;;;;;;;;;;;;;;;5055467;28;20058;-47
2024/03/26 09:43:24;;;;;;;;;;;;;;;;;;5055449;28;19913;-49
2024/03/26 09:45:50;;;;;;;;;;;;;;;;;;5054140;28;20003;-48
2024/03/26 09:48:16;;;;;;;;;;;;;;;;;;5055237;28;19923;-47
2024/03/26 09:50:42;;;;;;;;;;;;;;;;;;5055231;28;19912;-47
2024/03/26 09:53:09;;;;;;;;;;;;;;;;;;5054641;28;20333;-48
2024/03/26 09:55:36;;;;;;;;;;;;;;;;;;5053918;28;19962;-49
2024/03/26 09:58:02;;;;;;;;;;;;;;;;;;5055370;28;19924;-48
2024/03/26 10:00:28;;;;;;;;;;;;;;;;;;5054855;28;19916;-48
2024/03/26 10:02:54;;;;;;;;;;;;;;;;;;5055051;28;19916;-49
2024/03/26 10:05:20;;;;;;;;;;;;;;;;;;5055028;28;20445;-49
2024/03/26 10:07:46;;;;;;;;;;;;;;;;;;5054770;28;20506;-48
2024/03/26 10:10:12;;;;;;;;;;;;;;;;;;5054874;28;19924;-48
2024/03/26 10:12:39;;;;;;;;;;;;;;;;;;5054843;28;19927;-48
2024/03/26 10:15:05;;;;;;;;;;;;;;;;;;5054846;28;20459;-51
2024/03/26 10:17:31;;;;;;;;;;;;;;;;;;5054620;28;19996;-50
2024/03/26 10:19:57;;;;;;;;;;;;;;;;;;5053502;28;19912;-48
2024/03/26 10:22:23;;;;;;;;;;;;;;;;;;5054505;28;19912;-53
2024/03/26 10:24:49;;;;;;;;;;;;;;;;;;5053475;28;19913;-47
2024/03/26 10:27:15;;;;;;;;;;;;;;;;;;5054431;28;19912;-48
2024/03/26 10:29:41;;;;;;;;;;;;;;;;;;5053200;28;20605;-48
2024/03/26 10:32:07;;;;;;;;;;;;;;;;;;5054524;28;19913;-48
2024/03/26 10:34:33;;;;;;;;;;;;;;;;;;5054380;28;19920;-49
2024/03/26 10:36:59;;;;;;;;;;;;;;;;;;5054419;28;20291;-51
2024/03/26 10:39:25;;;;;;;;;;;;;;;;;;5054142;28;19920;-49
2024/03/26 10:41:52;;;;;;;;;;;;;;;;;;5054190;28;19920;-48
2024/03/26 10:44:18;;;;;;;;;;;;;;;;;;5052885;28;19913;-47
2024/03/26 10:46:44;;;;;;;;;;;;;;;;;;5054332;28;20339;-50
2024/03/26 10:49:10;;;;;;;;;;;;;;;;;;5054038;28;19913;-50
2024/03/26 10:51:36;;;;;;;;;;;;;;;;;;5053982;28;19924;-51
2024/03/26 10:54:02;;;;;;;;;;;;;;;;;;5053975;28;20016;-49
2024/03/26 10:56:28;;;;;;;;;;;;;;;;;;5054057;28;19920;-53
2024/03/26 10:58:55;;;;;;;;;;;;;;;;;;5052620;28;19995;-51
2024/03/26 11:01:21;;;;;;;;;;;;;;;;;;5061136;22;19925;-48
2024/03/26 11:03:47;;;;;;;;;;;;;;;;;;5033845;28;19917;-48
2024/03/26 11:06:13;;;;;;;;;;;;;;;;;;5033971;28;20348;-48
2024/03/26 11:08:39;;;;;;;;;;;;;;;;;;5033686;28;19913;-48
2024/03/26 11:11:08;;;;;;;;;;;;;;;;;;5033702;28;19924;-47
2024/03/26 11:13:34;;;;;;;;;;;;;;;;;;5033929;28;19983;-48
2024/03/26 11:16:00;;;;;;;;;;;;;;;;;;5024652;28;19917;-53
2024/03/26 11:18:27;;;;;;;;;;;;;;;;;;5034320;28;20000;-50
2024/03/26 11:20:53;;;;;;;;;;;;;;;;;;5043665;28;20270;-48
2024/03/26 11:23:19;;;;;;;;;;;;;;;;;;5040333;28;19920;-48
2024/03/26 11:25:45;;;;;;;;;;;;;;;;;;5035889;28;20359;-52
2024/03/26 11:28:11;;;;;;;;;;;;;;;;;;5032545;28;19966;-48
2024/03/26 11:30:37;;;;;;;;;;;;;;;;;;5042071;28;19912;-49
2024/03/26 11:33:04;;;;;;;;;;;;;;;;;;5024397;28;20543;-49
2024/03/26 11:35:30;;;;;;;;;;;;;;;;;;5040582;28;19917;-48
2024/03/26 11:37:56;;;;;;;;;;;;;;;;;;5030505;28;19917;-49
2024/03/26 11:40:22;;;;;;;;;;;;;;;;;;5029135;28;19932;-50
2024/03/26 11:42:48;;;;;;;;;;;;;;;;;;5013649;28;20003;-53
2024/03/26 11:45:14;;;;;;;;;;;;;;;;;;5031106;28;19917;-49
2024/03/26 11:47:41;;;;;;;;;;;;;;;;;;5030476;28;19916;-53
2024/03/26 11:50:07;;;;;;;;;;;;;;;;;;5031479;28;20404;-51
2024/03/26 11:52:33;;;;;;;;;;;;;;;;;;4996691;28;19921;-53
2024/03/26 11:54:59;;;;;;;;;;;;;;;;;;5000862;28;20469;-51
2024/03/26 11:57:25;;;;;;;;;;;;;;;;;;5025492;28;19917;-52
2024/03/26 11:59:53;;;;;;;;;;;;;;;;;;5000613;28;19917;-51
2024/03/26 12:02:19;;;;;;;;;;;;;;;;;;5025818;28;20409;-51
2024/03/26 12:04:45;;;;;;;;;;;;;;;;;;5019596;28;19914;-48
2024/03/26 12:07:11;;;;;;;;;;;;;;;;;;5011211;28;20011;-52
2024/03/26 12:09:37;;;;;;;;;;;;;;;;;;5023460;28;19913;-53
2024/03/26 12:12:03;;;;;;;;;;;;;;;;;;5011108;28;19917;-49
2024/03/26 12:14:29;;;;;;;;;;;;;;;;;;5018960;28;19944;-52
2024/03/26 12:16:55;;;;;;;;;;;;;;;;;;5028829;28;19913;-51
2024/03/26 12:19:21;;;;;;;;;;;;;;;;;;5022320;28;20351;-52
2024/03/26 12:21:48;;;;;;;;;;;;;;;;;;4992135;28;19924;-52
2024/03/26 12:24:14;;;;;;;;;;;;;;;;;;5002653;28;19913;-52
2024/03/26 12:26:40;;;;;;;;;;;;;;;;;;5019112;28;19944;-47
2024/03/26 12:29:06;;;;;;;;;;;;;;;;;;4994523;28;20010;-48
2024/03/26 12:31:32;;;;;;;;;;;;;;;;;;5019464;28;20004;-48
2024/03/26 12:33:58;;;;;;;;;;;;;;;;;;4991581;28;19964;-48
2024/03/26 12:36:24;;;;;;;;;;;;;;;;;;4993454;28;19940;-49
2024/03/26 12:38:50;;;;;;;;;;;;;;;;;;5013221;28;19920;-48
2024/03/26 12:41:16;;;;;;;;;;;;;;;;;;5011052;28;20000;-48
2024/03/26 12:43:42;;;;;;;;;;;;;;;;;;5011160;28;19924;-50
2024/03/26 12:46:08;;;;;;;;;;;;;;;;;;5002179;28;20301;-49
2024/03/26 12:48:35;;;;;;;;;;;;;;;;;;5030338;28;19917;-48
2024/03/26 12:51:01;;;;;;;;;;;;;;;;;;4995652;28;19953;-48
2024/03/26 12:53:27;;;;;;;;;;;;;;;;;;5024201;28;19919;-49
2024/03/26 12:55:53;;;;;;;;;;;;;;;;;;5012390;28;19924;-50
2024/03/26 12:58:19;;;;;;;;;;;;;;;;;;5015314;28;19924;-49
2024/03/26 13:00:45;;;;;;;;;;;;;;;;;;5019654;28;19983;-48
2024/03/26 13:03:12;;;;;;;;;;;;;;;;;;5010783;28;19960;-49
2024/03/26 13:05:38;;;;;;;;;;;;;;;;;;5010810;28;20016;-50
2024/03/26 13:08:04;;;;;;;;;;;;;;;;;;5007035;28;19913;-50
2024/03/26 13:10:30;;;;;;;;;;;;;;;;;;5021839;28;19920;-50
2024/03/26 13:12:56;;;;;;;;;;;;;;;;;;5016283;28;19967;-48
2024/03/26 13:15:23;;;;;;;;;;;;;;;;;;5014074;28;19920;-49
2024/03/26 13:17:49;;;;;;;;;;;;;;;;;;5015575;28;19921;-48
2024/03/26 13:20:15;;;;;;;;;;;;;;;;;;5015871;28;19926;-48
2024/03/26 13:22:41;;;;;;;;;;;;;;;;;;5029070;28;19913;-49
2024/03/26 13:25:08;;;;;;;;;;;;;;;;;;5034354;28;19913;-49
2024/03/26 13:27:34;;;;;;;;;;;;;;;;;;5026636;28;20004;-49
2024/03/26 13:30:00;;;;;;;;;;;;;;;;;;5014333;28;19983;-48
2024/03/26 13:32:26;;;;;;;;;;;;;;;;;;5019644;28;19917;-47
2024/03/26 13:34:52;;;;;;;;;;;;;;;;;;5014324;28;19918;-48
2024/03/26 13:37:18;;;;;;;;;;;;;;;;;;5015474;28;20012;-50
2024/03/26 13:39:45;;;;;;;;;;;;;;;;;;4996637;28;19917;-48
2024/03/26 13:42:11;;;;;;;;;;;;;;;;;;5014148;28;19933;-48
2024/03/26 13:44:37;;;;;;;;;;;;;;;;;;5014293;28;20056;-48
2024/03/26 13:47:03;;;;;;;;;;;;;;;;;;5005660;28;19982;-49
2024/03/26 13:49:29;;;;;;;;;;;;;;;;;;5016054;28;20356;-49
2024/03/26 13:51:55;;;;;;;;;;;;;;;;;;5032373;28;19923;-48
2024/03/26 13:54:21;;;;;;;;;;;;;;;;;;5036454;28;19917;-48
2024/03/26 13:56:47;;;;;;;;;;;;;;;;;;5000251;28;19913;-48
2024/03/26 13:59:13;;;;;;;;;;;;;;;;;;5033222;28;19920;-48
2024/03/26 14:01:39;;;;;;;;;;;;;;;;;;5023676;28;20011;-48
2024/03/26 14:04:05;;;;;;;;;;;;;;;;;;5015129;28;20302;-48
2024/03/26 14:06:32;;;;;;;;;;;;;;;;;;5029595;28;19960;-48
2024/03/26 14:08:58;;;;;;;;;;;;;;;;;;5034839;28;20000;-48
2024/03/26 14:11:24;;;;;;;;;;;;;;;;;;5017004;28;20389;-50
2024/03/26 14:13:50;;;;;;;;;;;;;;;;;;5034840;28;19920;-51
2024/03/26 14:16:16;;;;;;;;;;;;;;;;;;5030584;28;20289;-48
2024/03/26 14:18:43;;;;;;;;;;;;;;;;;;5035326;28;19995;-48
2024/03/26 14:21:10;;;;;;;;;;;;;;;;;;5029018;28;19917;-48
2024/03/26 14:23:36;;;;;;;;;;;;;;;;;;5040838;28;19978;-48
2024/03/26 14:26:03;;;;;;;;;;;;;;;;;;5040424;28;20318;-48
2024/03/26 14:28:29;;;;;;;;;;;;;;;;;;5022466;28;19913;-52
2024/03/26 14:30:55;;;;;;;;;;;;;;;;;;5022801;28;19947;-48
2024/03/26 14:33:21;;;;;;;;;;;;;;;;;;5047187;28;19912;-49
2024/03/26 14:35:47;;;;;;;;;;;;;;;;;;5040827;28;20027;-48
2024/03/26 14:38:13;;;;;;;;;;;;;;;;;;5031959;28;19921;-48
2024/03/26 14:40:39;;;;;;;;;;;;;;;;;;5039703;28;20417;-48
2024/03/26 14:43:06;;;;;;;;;;;;;;;;;;5043887;28;19957;-47
2024/03/26 14:45:32;;;;;;;;;;;;;;;;;;5043006;28;19913;-48
2024/03/26 14:47:59;;;;;;;;;;;;;;;;;;5046555;28;19912;-48
2024/03/26 14:50:25;;;;;;;;;;;;;;;;;;5041593;28;19913;-48
2024/03/26 14:52:52;;;;;;;;;;;;;;;;;;5036035;28;19963;-50
2024/03/26 14:55:18;;;;;;;;;;;;;;;;;;5028397;28;19952;-48
2024/03/26 14:57:44;;;;;;;;;;;;;;;;;;5029450;28;20412;-50
2024/03/26 15:00:10;;;;;;;;;;;;;;;;;;5017438;28;19921;-48
2024/03/26 15:02:36;;;;;;;;;;;;;;;;;;5014569;28;19913;-48
2024/03/26 15:05:04;;;;;;;;;;;;;;;;;;4996514;28;20348;-48
2024/03/26 15:07:30;;;;;;;;;;;;;;;;;;5013933;28;19955;-48
2024/03/26 15:09:57;;;;;;;;;;;;;;;;;;5013952;28;19913;-48
2024/03/26 15:12:23;;;;;;;;;;;;;;;;;;4996410;28;19940;-49
2024/03/26 15:14:49;;;;;;;;;;;;;;;;;;5013972;28;19952;-49
2024/03/26 15:17:16;;;;;;;;;;;;;;;;;;4996320;28;19914;-49
2024/03/26 15:19:42;;;;;;;;;;;;;;;;;;4996300;28;19920;-49
2024/03/26 15:22:08;;;;;;;;;;;;;;;;;;5013751;28;19917;-49
2024/03/26 15:24:34;;;;;;;;;;;;;;;;;;5013917;28;20003;-51
2024/03/26 15:32:21;;;;;;;;;;;;;;;;;;5013319;28;19918;-49
2024/03/26 15:34:47;;;;;;;;;;;;;;;;;;5013756;28;19945;-52
2024/03/26 15:37:13;;;;;;;;;;;;;;;;;;4979696;28;19924;-49
2024/03/26 15:39:40;;;;;;;;;;;;;;;;;;4996049;28;20357;-48
2024/03/26 15:42:06;;;;;;;;;;;;;;;;;;4995836;28;19972;-49
2024/03/26 15:44:32;;;;;;;;;;;;;;;;;;5013571;28;20337;-49
2024/03/26 15:46:58;;;;;;;;;;;;;;;;;;5013171;28;20413;-48
2024/03/26 15:49:24;;;;;;;;;;;;;;;;;;5013205;28;19910;-48
2024/03/26 15:51:50;;;;;;;;;;;;;;;;;;5013214;28;19920;-48
2024/03/26 15:54:20;;;;;;;;;;;;;;;;;;5014331;28;19924;-48
2024/03/26 15:56:46;;;;;;;;;;;;;;;;;;5052370;28;19959;-49
2024/03/26 15:59:12;;;;;;;;;;;;;;;;;;5052335;28;20377;-49
2024/03/26 16:01:39;;;;;;;;;;;;;;;;;;5052465;28;19964;-49
2024/03/26 16:04:05;;;;;;;;;;;;;;;;;;5052106;28;20006;-48
2024/03/26 16:06:31;;;;;;;;;;;;;;;;;;5052277;28;20437;-49
2024/03/26 16:08:58;;;;;;;;;;;;;;;;;;5052339;28;20293;-49
2024/03/26 16:11:24;;;;;;;;;;;;;;;;;;5052436;28;20389;-49
2024/03/26 16:13:50;;;;;;;;;;;;;;;;;;5052585;28;19940;-48
2024/03/26 16:16:16;;;;;;;;;;;;;;;;;;5034552;28;20329;-49
2024/03/26 16:18:42;;;;;;;;;;;;;;;;;;5052430;28;20289;-49
2024/03/26 16:21:08;;;;;;;;;;;;;;;;;;5052274;28;19917;-50
2024/03/26 16:23:34;;;;;;;;;;;;;;;;;;5052384;28;19909;-49
2024/03/26 16:26:00;;;;;;;;;;;;;;;;;;5034648;28;19913;-48
2024/03/26 16:28:26;;;;;;;;;;;;;;;;;;5052108;28;19966;-48
2024/03/26 16:30:53;;;;;;;;;;;;;;;;;;5052111;28;19913;-49
2024/03/26 16:33:20;;;;;;;;;;;;;;;;;;5034496;28;19915;-48
2024/03/26 16:35:47;;;;;;;;;;;;;;;;;;5052125;28;19959;-48
2024/03/26 16:38:13;;;;;;;;;;;;;;;;;;5052004;28;19913;-49
2024/03/26 16:40:39;;;;;;;;;;;;;;;;;;5034209;28;19920;-49
2024/03/26 16:43:06;;;;;;;;;;;;;;;;;;5051873;28;19961;-49